createdAt,value
2022-12-25T00:02:16.638Z,5.27
2022-12-25T00:04:44.680Z,6.63
2022-12-25T00:07:14.013Z,6.10
2022-12-25T00:09:42.252Z,6.07
2022-12-25T00:12:10.104Z,6.47
2022-12-25T00:14:37.933Z,4.10
2022-12-25T00:17:06.024Z,5.53
2022-12-25T00:19:34.108Z,6.50
2022-12-25T00:22:02.010Z,5.93
2022-12-25T00:24:31.595Z,6.07
2022-12-25T00:26:59.429Z,5.90
2022-12-25T00:29:27.257Z,5.10
2022-12-25T00:31:55.481Z,5.40
2022-12-25T00:34:23.378Z,6.30
2022-12-25T00:36:51.518Z,5.47
2022-12-25T00:39:19.883Z,5.50
2022-12-25T00:42:06.293Z,5.67
2022-12-25T00:44:34.561Z,5.30
2022-12-25T00:47:02.807Z,6.10
2022-12-25T00:49:30.723Z,5.70
2022-12-25T00:51:58.980Z,6.20
2022-12-25T00:54:26.945Z,5.33
2022-12-25T00:56:56.156Z,6.13
2022-12-25T00:59:24.205Z,6.03
2022-12-25T01:01:52.281Z,5.97
2022-12-25T01:04:20.294Z,5.67
2022-12-25T01:06:48.401Z,5.70
2022-12-25T01:09:33.753Z,5.93
2022-12-25T01:12:03.232Z,5.90
2022-12-25T01:14:31.085Z,4.77
2022-12-25T01:16:58.903Z,6.20
2022-12-25T01:19:26.911Z,5.60
2022-12-25T01:21:54.782Z,5.57
2022-12-25T01:24:22.666Z,5.60
2022-12-25T01:26:50.720Z,5.50
2022-12-25T01:29:19.921Z,5.57
2022-12-25T01:31:47.949Z,5.83
2022-12-25T01:34:16.096Z,5.63
2022-12-25T01:36:43.964Z,4.67
2022-12-25T01:39:11.862Z,4.83
2022-12-25T01:41:39.913Z,5.20
2022-12-25T01:44:09.983Z,5.50
2022-12-25T01:46:39.162Z,4.93
2022-12-25T01:49:12.715Z,5.03
2022-12-25T01:51:44.172Z,5.23
2022-12-25T01:54:15.361Z,5.27
2022-12-25T01:56:45.773Z,4.20
2022-12-25T01:59:17.520Z,4.87
2022-12-25T02:01:47.561Z,4.67
2022-12-25T02:04:21.120Z,4.30
2022-12-25T02:06:51.027Z,4.00
2022-12-25T02:09:19.758Z,4.40
2022-12-25T02:12:00.430Z,4.83
2022-12-25T02:14:32.415Z,3.00
2022-12-25T02:17:11.753Z,2.50
2022-12-25T02:20:03.737Z,3.10
2022-12-25T02:22:46.004Z,3.40
2022-12-25T02:25:32.395Z,3.10
2022-12-25T02:28:11.359Z,3.03
2022-12-25T02:30:43.802Z,3.37
2022-12-25T02:33:34.849Z,2.87
2022-12-25T02:36:09.398Z,3.10
2022-12-25T02:39:01.421Z,3.30
2022-12-25T02:41:30.793Z,3.23
2022-12-25T02:44:20.532Z,2.90
2022-12-25T02:47:06.662Z,1.17
2022-12-25T02:49:53.740Z,2.40
2022-12-25T02:52:41.332Z,2.87
2022-12-25T02:55:31.342Z,2.03
2022-12-25T02:58:22.616Z,2.30
2022-12-25T03:01:18.072Z,2.40
2022-12-25T03:04:07.625Z,2.70
2022-12-25T03:06:44.071Z,2.87
2022-12-25T03:09:33.551Z,2.43
2022-12-25T03:12:06.694Z,2.43
2022-12-25T03:14:52.383Z,2.50
2022-12-25T03:17:21.907Z,2.40
2022-12-25T03:20:07.372Z,2.73
2022-12-25T03:22:53.637Z,2.70
2022-12-25T03:25:39.038Z,2.07
2022-12-25T03:28:08.072Z,2.13
2022-12-25T03:31:02.387Z,1.30
2022-12-25T03:33:47.025Z,2.23
2022-12-25T03:36:23.649Z,2.40
2022-12-25T03:39:24.783Z,2.77
2022-12-25T03:42:19.110Z,2.70
2022-12-25T03:45:15.564Z,2.33
2022-12-25T03:48:01.645Z,2.43
2022-12-25T03:50:52.576Z,1.90
2022-12-25T03:53:42.952Z,2.90
2022-12-25T03:56:29.649Z,2.57
2022-12-25T03:59:23.235Z,2.43
2022-12-25T04:02:10.353Z,1.93
2022-12-25T04:04:56.121Z,2.13
2022-12-25T04:07:42.851Z,2.10
2022-12-25T04:10:29.044Z,1.90
2022-12-25T04:13:14.450Z,2.30
2022-12-25T04:15:59.851Z,2.20
2022-12-25T04:18:45.256Z,2.00
2022-12-25T04:21:30.671Z,2.53
2022-12-25T04:24:17.628Z,2.47
2022-12-25T04:27:02.989Z,2.33
2022-12-25T04:29:48.210Z,2.50
2022-12-25T04:32:33.781Z,2.73
2022-12-25T04:35:19.261Z,2.37
2022-12-25T04:37:47.463Z,2.30
2022-12-25T04:40:17.051Z,2.57
2022-12-25T04:42:45.093Z,2.70
2022-12-25T04:45:13.372Z,2.30
2022-12-25T04:47:41.466Z,2.70
2022-12-25T04:50:09.947Z,2.70
2022-12-25T04:52:38.623Z,2.50
2022-12-25T04:55:07.629Z,3.10
2022-12-25T04:57:37.241Z,2.20
2022-12-25T05:00:06.684Z,2.60
2022-12-25T05:02:34.850Z,2.43
2022-12-25T05:05:03.031Z,2.43
2022-12-25T05:07:30.978Z,2.57
2022-12-25T05:09:59.153Z,2.50
2022-12-25T05:12:27.115Z,2.23
2022-12-25T05:14:56.418Z,2.67
2022-12-25T05:17:24.230Z,2.60
2022-12-25T05:19:52.180Z,2.60
2022-12-25T05:22:20.159Z,2.87
2022-12-25T05:24:48.096Z,2.70
2022-12-25T05:27:16.424Z,2.70
2022-12-25T05:29:44.478Z,2.87
2022-12-25T05:32:13.814Z,3.00
2022-12-25T05:34:41.839Z,2.37
2022-12-25T05:37:09.865Z,2.97
2022-12-25T05:39:37.780Z,3.33
2022-12-25T05:42:05.733Z,3.20
2022-12-25T05:44:33.625Z,2.80
2022-12-25T05:47:01.540Z,2.30
2022-12-25T05:49:30.968Z,3.30
2022-12-25T05:51:58.938Z,2.60
2022-12-25T05:54:26.915Z,2.77
2022-12-25T05:56:55.012Z,2.63
2022-12-25T05:59:22.970Z,3.10
2022-12-25T06:01:51.034Z,2.53
2022-12-25T06:04:19.202Z,2.47
2022-12-25T06:06:48.493Z,2.40
2022-12-25T06:09:16.520Z,2.80
2022-12-25T06:11:44.880Z,3.03
2022-12-25T06:14:14.018Z,2.90
2022-12-25T06:16:42.106Z,3.23
2022-12-25T06:19:10.302Z,3.30
2022-12-25T06:21:38.323Z,2.97
2022-12-25T06:24:08.352Z,3.20
2022-12-25T06:26:36.335Z,2.87
2022-12-25T06:29:04.441Z,3.33
2022-12-25T06:31:32.613Z,3.40
2022-12-25T06:34:00.611Z,3.10
2022-12-25T06:36:29.349Z,2.50
2022-12-25T06:38:58.262Z,3.17
2022-12-25T06:41:30.551Z,3.10
2022-12-25T06:44:00.295Z,3.10
2022-12-25T06:46:31.709Z,3.33
2022-12-25T06:49:01.956Z,2.63
2022-12-25T06:51:32.773Z,3.13
2022-12-25T06:54:03.835Z,2.97
2022-12-25T06:56:34.905Z,2.83
2022-12-25T06:59:04.946Z,3.00
2022-12-25T07:01:36.385Z,3.43
2022-12-25T07:04:07.306Z,2.90
2022-12-25T07:06:35.559Z,3.17
2022-12-25T07:09:03.882Z,3.27
2022-12-25T07:11:33.123Z,3.33
2022-12-25T07:14:00.963Z,3.57
2022-12-25T07:16:29.158Z,3.50
2022-12-25T07:18:57.077Z,3.20
2022-12-25T07:21:24.908Z,4.10
2022-12-25T07:23:53.065Z,3.70
2022-12-25T07:26:21.037Z,3.40
2022-12-25T07:28:50.245Z,3.13
2022-12-25T07:31:19.729Z,3.43
2022-12-25T07:33:47.959Z,3.30
2022-12-25T07:36:16.461Z,4.20
2022-12-25T07:38:45.060Z,3.33
2022-12-25T07:41:13.932Z,4.30
2022-12-25T07:43:42.288Z,3.83
2022-12-25T07:46:12.344Z,3.87
2022-12-25T07:48:40.309Z,3.90
2022-12-25T07:51:11.475Z,3.80
2022-12-25T07:53:40.252Z,3.90
2022-12-25T07:56:11.372Z,4.23
2022-12-25T07:58:39.899Z,4.00
2022-12-25T08:01:09.785Z,4.30
2022-12-25T08:03:39.358Z,4.07
2022-12-25T08:06:10.460Z,3.77
2022-12-25T08:08:40.160Z,3.63
2022-12-25T08:11:09.603Z,3.50
2022-12-25T08:13:38.598Z,3.80
2022-12-25T08:16:09.191Z,4.60
2022-12-25T08:18:40.080Z,4.13
2022-12-25T08:21:09.623Z,4.17
2022-12-25T08:23:38.934Z,4.40
2022-12-25T08:26:08.530Z,4.17
2022-12-25T08:28:37.254Z,4.07
2022-12-25T08:31:10.589Z,4.07
2022-12-25T08:33:40.723Z,4.10
2022-12-25T08:36:10.814Z,4.30
2022-12-25T08:38:39.651Z,4.80
2022-12-25T08:41:08.228Z,4.70
2022-12-25T08:43:36.149Z,4.80
2022-12-25T08:46:04.678Z,4.80
2022-12-25T08:48:32.661Z,4.70
2022-12-25T08:51:02.359Z,4.67
2022-12-25T08:53:30.851Z,4.83
2022-12-25T08:56:00.044Z,4.70
2022-12-25T08:58:28.744Z,4.50
2022-12-25T09:00:57.082Z,4.80
2022-12-25T09:03:25.559Z,4.57
2022-12-25T09:05:54.164Z,4.67
2022-12-25T09:08:23.481Z,4.73
2022-12-25T09:10:51.358Z,4.30
2022-12-25T09:13:19.247Z,5.00
2022-12-25T09:15:47.302Z,4.80
2022-12-25T09:18:15.155Z,4.43
2022-12-25T09:20:43.033Z,4.10
2022-12-25T09:23:14.149Z,4.90
2022-12-25T09:25:43.644Z,3.83
2022-12-25T09:28:11.439Z,4.17
2022-12-25T09:30:39.409Z,4.10
2022-12-25T09:33:07.506Z,3.63
2022-12-25T09:35:35.635Z,4.10
2022-12-25T09:38:03.705Z,3.53
2022-12-25T09:40:33.565Z,3.97
2022-12-25T09:43:04.601Z,4.07
2022-12-25T09:45:40.049Z,4.20
2022-12-25T09:48:08.269Z,4.00
2022-12-25T09:50:43.658Z,3.90
2022-12-25T09:53:18.013Z,3.93
2022-12-25T09:55:54.053Z,4.33
2022-12-25T09:58:23.506Z,4.80
2022-12-25T10:00:58.185Z,3.87
2022-12-25T10:03:49.789Z,4.87
2022-12-25T10:06:22.162Z,4.90
2022-12-25T10:09:14.111Z,4.10
2022-12-25T10:11:57.025Z,4.43
2022-12-25T10:14:35.454Z,3.97
2022-12-25T10:17:19.118Z,4.00
2022-12-25T10:19:54.269Z,3.80
2022-12-25T10:22:33.100Z,4.60
2022-12-25T10:25:01.914Z,4.03
2022-12-25T10:27:33.673Z,4.57
2022-12-25T10:30:06.992Z,4.13
2022-12-25T10:32:35.149Z,4.60
2022-12-25T10:35:03.031Z,4.33
2022-12-25T10:37:31.155Z,4.50
2022-12-25T10:39:59.170Z,4.47
2022-12-25T10:42:39.860Z,5.10
2022-12-25T10:45:10.726Z,4.70
2022-12-25T10:47:42.783Z,4.50
2022-12-25T10:50:14.001Z,4.07
2022-12-25T10:52:55.152Z,4.43
2022-12-25T10:55:28.495Z,4.60
2022-12-25T10:57:58.060Z,4.50
2022-12-25T11:00:29.914Z,5.30
2022-12-25T11:02:58.780Z,5.17
2022-12-25T11:05:29.379Z,5.33
2022-12-25T11:07:59.593Z,5.47
2022-12-25T11:10:31.313Z,6.13
2022-12-25T11:13:00.068Z,5.53
2022-12-25T11:15:37.090Z,5.50
2022-12-25T11:18:05.749Z,5.90
2022-12-25T11:20:33.980Z,6.03
2022-12-25T11:23:01.985Z,6.27
2022-12-25T11:25:29.870Z,7.17
2022-12-25T11:28:00.117Z,6.83
2022-12-25T11:30:29.772Z,6.27
2022-12-25T11:33:02.059Z,6.50
2022-12-25T11:35:38.208Z,7.20
2022-12-25T11:38:06.048Z,6.70
2022-12-25T11:40:41.665Z,6.40
2022-12-25T11:43:15.811Z,6.97
2022-12-25T11:45:50.205Z,6.97
2022-12-25T11:48:25.656Z,7.13
2022-12-25T11:50:57.394Z,6.53
2022-12-25T11:53:32.528Z,6.77
2022-12-25T11:56:04.450Z,6.70
2022-12-25T11:58:37.441Z,7.30
2022-12-25T12:01:09.993Z,6.80
2022-12-25T12:03:41.693Z,6.80
2022-12-25T12:06:15.903Z,6.77
2022-12-25T12:08:44.587Z,6.40
2022-12-25T12:11:20.726Z,6.20
2022-12-25T12:14:13.318Z,6.40
2022-12-25T12:16:41.369Z,5.60
2022-12-25T12:19:14.763Z,5.50
2022-12-25T12:21:44.335Z,5.17
2022-12-25T12:24:18.264Z,4.73
2022-12-25T12:26:48.843Z,5.10
2022-12-25T12:29:25.561Z,5.27
2022-12-25T12:31:54.783Z,4.57
2022-12-25T12:34:27.131Z,4.20
2022-12-25T12:37:00.407Z,4.23
2022-12-25T12:39:34.271Z,5.03
2022-12-25T12:42:03.032Z,4.33
2022-12-25T12:44:35.172Z,4.67
2022-12-25T12:47:03.084Z,5.67
2022-12-25T12:49:33.751Z,5.37
2022-12-25T12:52:07.665Z,6.00
2022-12-25T12:54:56.038Z,5.67
2022-12-25T12:57:25.954Z,6.17
2022-12-25T12:59:54.173Z,5.60
2022-12-25T13:02:45.589Z,6.03
2022-12-25T13:05:21.432Z,6.30
2022-12-25T13:08:00.182Z,6.03
2022-12-25T13:10:33.703Z,5.87
2022-12-25T13:13:06.406Z,6.30
2022-12-25T13:15:36.800Z,6.27
2022-12-25T13:18:08.465Z,7.67
2022-12-25T13:20:44.561Z,7.97
2022-12-25T13:23:22.917Z,6.83
2022-12-25T13:25:53.754Z,7.70
2022-12-25T13:28:26.420Z,7.60
2022-12-25T13:30:54.449Z,8.63
2022-12-25T13:33:23.413Z,7.60
2022-12-25T13:35:52.996Z,8.10
2022-12-25T13:38:22.437Z,7.00
2022-12-25T13:41:12.294Z,8.03
2022-12-25T13:43:41.044Z,8.10
2022-12-25T13:46:09.311Z,8.10
2022-12-25T13:48:37.267Z,8.20
2022-12-25T13:51:06.885Z,8.03
2022-12-25T13:53:34.818Z,8.40
2022-12-25T13:56:02.845Z,8.13
2022-12-25T13:58:34.813Z,7.43
2022-12-25T14:01:04.310Z,7.93
2022-12-25T14:03:36.619Z,7.80
2022-12-25T14:06:08.540Z,7.60
2022-12-25T14:08:37.398Z,7.60
2022-12-25T14:11:07.270Z,7.73
2022-12-25T14:13:41.625Z,6.70
2022-12-25T14:16:10.353Z,7.10
2022-12-25T14:18:38.618Z,7.80
2022-12-25T14:21:13.135Z,6.63
2022-12-25T14:23:45.271Z,7.00
2022-12-25T14:26:18.042Z,7.40
2022-12-25T14:28:49.942Z,7.13
2022-12-25T14:31:18.526Z,6.93
2022-12-25T14:33:47.445Z,7.00
2022-12-25T14:36:17.097Z,6.50
2022-12-25T14:38:46.124Z,5.80
2022-12-25T14:41:33.446Z,5.27
2022-12-25T14:44:04.300Z,7.03
2022-12-25T14:46:34.306Z,5.00
2022-12-25T14:49:04.207Z,5.73
2022-12-25T14:51:38.486Z,5.63
2022-12-25T14:54:16.631Z,5.83
2022-12-25T14:56:48.779Z,6.43
2022-12-25T14:59:19.968Z,6.03
2022-12-25T15:01:54.246Z,6.30
2022-12-25T15:04:23.830Z,6.87
2022-12-25T15:06:57.968Z,6.53
2022-12-25T15:09:26.631Z,6.33
2022-12-25T15:11:56.741Z,6.70
2022-12-25T15:14:25.254Z,6.47
2022-12-25T15:16:54.938Z,5.63
2022-12-25T15:19:31.764Z,5.60
2022-12-25T15:22:04.420Z,5.43
2022-12-25T15:24:33.128Z,5.50
2022-12-25T15:27:01.631Z,5.50
2022-12-25T15:30:07.891Z,6.00
2022-12-25T15:32:20.025Z,5.33
2022-12-25T15:34:50.075Z,5.57
2022-12-25T15:37:19.863Z,5.77
2022-12-25T15:39:48.039Z,5.67
2022-12-25T15:42:19.557Z,5.40
2022-12-25T15:44:47.509Z,6.43
2022-12-25T15:47:17.198Z,5.80
2022-12-25T15:49:45.171Z,6.03
2022-12-25T15:52:15.633Z,6.60
2022-12-25T15:54:45.364Z,6.30
2022-12-25T15:57:17.805Z,5.77
2022-12-25T15:59:45.834Z,6.20
2022-12-25T16:02:17.465Z,6.07
2022-12-25T16:04:45.762Z,5.77
2022-12-25T16:07:16.369Z,6.10
2022-12-25T16:09:46.158Z,5.30
2022-12-25T16:12:14.518Z,5.60
2022-12-25T16:14:42.467Z,6.73
2022-12-25T16:17:13.542Z,6.90
2022-12-25T16:19:41.450Z,6.90
2022-12-25T16:22:13.036Z,6.87
2022-12-25T16:24:41.035Z,6.43
2022-12-25T16:27:10.451Z,6.37
2022-12-25T16:29:38.321Z,6.80
2022-12-25T16:32:06.250Z,7.00
2022-12-25T16:34:34.237Z,6.47
2022-12-25T16:37:02.095Z,7.30
2022-12-25T16:39:30.079Z,6.73
2022-12-25T16:41:58.076Z,7.03
2022-12-25T16:44:27.303Z,7.07
2022-12-25T16:46:55.515Z,7.17
2022-12-25T16:49:23.764Z,7.00
2022-12-25T16:51:51.599Z,7.43
2022-12-25T16:54:19.681Z,7.00
2022-12-25T16:56:48.067Z,7.87
2022-12-25T16:59:15.928Z,7.10
2022-12-25T17:01:45.370Z,6.97
2022-12-25T17:04:13.612Z,6.80
2022-12-25T17:06:41.471Z,7.30
2022-12-25T17:09:09.474Z,7.80
2022-12-25T17:11:37.468Z,7.43
2022-12-25T17:14:06.309Z,7.43
2022-12-25T17:16:36.465Z,7.33
2022-12-25T17:19:09.939Z,7.70
2022-12-25T17:21:38.823Z,7.77
2022-12-25T17:24:07.946Z,7.40
2022-12-25T17:26:35.830Z,8.00
2022-12-25T17:29:04.038Z,7.50
2022-12-25T17:31:32.010Z,7.60
2022-12-25T17:34:01.541Z,7.07
2022-12-25T17:36:31.401Z,8.70
2022-12-25T17:39:00.429Z,8.73
2022-12-25T17:41:28.605Z,8.10
2022-12-25T17:43:56.549Z,7.70
2022-12-25T17:46:27.488Z,8.00
2022-12-25T17:48:56.988Z,7.90
2022-12-25T17:51:27.295Z,8.43
2022-12-25T17:54:00.423Z,7.23
2022-12-25T17:56:29.180Z,6.67
2022-12-25T17:58:59.317Z,6.90
2022-12-25T18:01:29.307Z,6.33
2022-12-25T18:03:57.405Z,6.40
2022-12-25T18:06:26.137Z,5.50
2022-12-25T18:08:57.119Z,6.47
2022-12-25T18:11:29.280Z,5.17
2022-12-25T18:13:58.323Z,5.00
2022-12-25T18:16:27.264Z,5.83
2022-12-25T18:18:55.515Z,4.97
2022-12-25T18:21:23.827Z,4.43
2022-12-25T18:23:52.002Z,4.50
2022-12-25T18:26:22.553Z,4.33
2022-12-25T18:28:50.962Z,4.03
2022-12-25T18:31:20.980Z,3.67
2022-12-25T18:33:50.068Z,4.37
2022-12-25T18:36:20.176Z,3.77
2022-12-25T18:38:48.231Z,3.73
2022-12-25T18:41:16.166Z,4.13
2022-12-25T18:43:53.770Z,3.80
2022-12-25T18:46:24.754Z,4.60
2022-12-25T18:48:53.517Z,3.87
2022-12-25T18:51:21.355Z,4.70
2022-12-25T18:53:49.546Z,4.13
2022-12-25T18:56:18.568Z,4.47
2022-12-25T18:58:48.423Z,4.43
2022-12-25T19:01:19.312Z,4.87
2022-12-25T19:03:48.975Z,3.87
2022-12-25T19:06:21.871Z,4.50
2022-12-25T19:08:49.896Z,3.90
2022-12-25T19:11:18.686Z,4.33
2022-12-25T19:13:48.717Z,4.30
2022-12-25T19:16:16.636Z,4.57
2022-12-25T19:18:44.728Z,5.13
2022-12-25T19:21:12.821Z,5.77
2022-12-25T19:23:41.392Z,5.40
2022-12-25T19:26:10.874Z,4.60
2022-12-25T19:28:40.431Z,4.97
2022-12-25T19:31:11.076Z,4.60
2022-12-25T19:33:40.825Z,5.40
2022-12-25T19:36:11.673Z,4.60
2022-12-25T19:38:39.923Z,5.03
2022-12-25T19:41:08.700Z,4.30
2022-12-25T19:43:39.564Z,5.13
2022-12-25T19:46:11.701Z,4.73
2022-12-25T19:48:39.679Z,5.37
2022-12-25T19:51:16.398Z,5.40
2022-12-25T19:53:44.199Z,4.97
2022-12-25T19:56:12.179Z,5.67
2022-12-25T19:58:40.458Z,4.70
2022-12-25T20:01:13.503Z,5.13
2022-12-25T20:03:46.334Z,4.77
2022-12-25T20:06:18.837Z,4.67
2022-12-25T20:08:47.256Z,5.03
2022-12-25T20:11:15.302Z,5.00
2022-12-25T20:13:43.104Z,6.00
2022-12-25T20:16:13.020Z,4.63
2022-12-25T20:18:41.428Z,4.60
2022-12-25T20:21:11.723Z,3.73
2022-12-25T20:23:39.768Z,4.70
2022-12-25T20:26:07.924Z,4.27
2022-12-25T20:28:37.739Z,3.90
2022-12-25T20:31:10.041Z,4.03
2022-12-25T20:33:39.410Z,4.13
2022-12-25T20:36:08.418Z,4.07
2022-12-25T20:38:37.047Z,3.80
2022-12-25T20:41:27.554Z,4.10
2022-12-25T20:43:56.903Z,3.57
2022-12-25T20:46:25.104Z,4.10
2022-12-25T20:48:55.012Z,4.37
2022-12-25T20:51:25.063Z,3.53
2022-12-25T20:53:53.840Z,4.40
2022-12-25T20:56:23.681Z,3.97
2022-12-25T20:58:54.719Z,4.20
2022-12-25T21:01:22.844Z,3.23
2022-12-25T21:03:50.908Z,4.30
2022-12-25T21:06:20.926Z,4.37
2022-12-25T21:08:48.798Z,3.90
2022-12-25T21:11:17.638Z,3.60
2022-12-25T21:13:47.029Z,3.70
2022-12-25T21:16:17.200Z,3.70
2022-12-25T21:18:45.702Z,3.03
2022-12-25T21:21:14.193Z,3.20
2022-12-25T21:23:43.815Z,3.20
2022-12-25T21:26:14.030Z,2.83
2022-12-25T21:28:42.173Z,2.77
2022-12-25T21:31:10.321Z,2.50
2022-12-25T21:33:52.548Z,2.80
2022-12-25T21:36:23.151Z,2.73
2022-12-25T21:38:56.299Z,2.90
2022-12-25T21:41:24.894Z,2.53
2022-12-25T21:43:53.000Z,2.63
2022-12-25T21:46:21.129Z,2.40
2022-12-25T21:48:49.523Z,2.93
2022-12-25T21:51:37.283Z,2.90
2022-12-25T21:54:07.027Z,2.80
2022-12-25T21:56:43.452Z,2.70
2022-12-25T21:59:15.843Z,2.60
2022-12-25T22:01:45.209Z,3.07
2022-12-25T22:04:14.448Z,3.07
2022-12-25T22:06:59.952Z,2.97
2022-12-25T22:09:29.469Z,3.70
2022-12-25T22:12:14.774Z,3.00
2022-12-25T22:14:56.741Z,3.33
2022-12-25T22:17:44.144Z,3.20
2022-12-25T22:20:14.326Z,3.30
2022-12-25T22:22:42.152Z,3.40
2022-12-25T22:25:12.040Z,3.10
2022-12-25T22:27:41.383Z,3.53
2022-12-25T22:30:11.261Z,3.23
2022-12-25T22:32:39.295Z,3.13
2022-12-25T22:35:07.967Z,3.80
2022-12-25T22:37:36.116Z,3.40
2022-12-25T22:40:04.458Z,3.20
2022-12-25T22:42:34.252Z,3.20
2022-12-25T22:45:02.100Z,3.07
2022-12-25T22:47:30.242Z,3.40
2022-12-25T22:49:58.087Z,3.07
2022-12-25T22:52:26.001Z,3.30
2022-12-25T22:54:54.064Z,3.27
2022-12-25T22:57:21.888Z,4.13
2022-12-25T22:59:52.609Z,3.60
2022-12-25T23:02:21.409Z,3.40
2022-12-25T23:04:49.842Z,3.80
2022-12-25T23:07:18.050Z,3.90
2022-12-25T23:09:46.603Z,3.47
2022-12-25T23:12:28.368Z,3.33
2022-12-25T23:14:58.294Z,3.70
2022-12-25T23:17:43.781Z,3.70
2022-12-25T23:20:32.729Z,3.40
2022-12-25T23:23:18.360Z,4.07
2022-12-25T23:26:03.706Z,3.70
2022-12-25T23:28:49.001Z,3.40
2022-12-25T23:31:18.525Z,4.13
2022-12-25T23:33:46.413Z,4.50
2022-12-25T23:36:14.422Z,4.13
2022-12-25T23:38:42.425Z,4.57
2022-12-25T23:41:10.288Z,3.83
2022-12-25T23:43:38.204Z,3.93
2022-12-25T23:46:06.383Z,4.10
2022-12-25T23:48:35.644Z,3.53
2022-12-25T23:51:05.015Z,3.50
2022-12-25T23:53:33.116Z,3.73
2022-12-25T23:56:01.355Z,4.07
2022-12-25T23:58:30.144Z,3.70
